createdAt,value
2023-05-13T00:02:03.361Z,3.95
2023-05-13T00:05:09.120Z,4.63
2023-05-13T00:08:14.155Z,3.83
2023-05-13T00:11:19.529Z,3.83
2023-05-13T00:14:27.112Z,6.10
2023-05-13T00:17:32.546Z,4.43
2023-05-13T00:20:37.769Z,4.15
2023-05-13T00:23:43.096Z,4.20
2023-05-13T00:26:48.043Z,3.83
2023-05-13T00:29:56.003Z,3.90
2023-05-13T00:33:01.148Z,3.78
2023-05-13T00:36:06.674Z,3.47
2023-05-13T00:39:11.891Z,4.22
2023-05-13T00:42:17.298Z,3.72
2023-05-13T00:45:25.145Z,3.35
2023-05-13T00:48:30.496Z,3.95
2023-05-13T00:51:35.707Z,4.35
2023-05-13T00:54:41.108Z,4.20
2023-05-13T00:57:48.968Z,3.65
2023-05-13T01:01:00.719Z,4.38
2023-05-13T01:04:14.574Z,3.80
2023-05-13T01:10:27.159Z,4.03
2023-05-13T01:13:37.067Z,3.80
2023-05-13T01:16:49.007Z,4.22
2023-05-13T01:19:55.633Z,3.97
2023-05-13T01:23:04.338Z,4.20
2023-05-13T01:26:09.698Z,4.03
2023-05-13T01:29:14.681Z,4.20
2023-05-13T01:32:21.189Z,4.20
2023-05-13T01:35:26.284Z,4.10
2023-05-13T01:38:34.686Z,4.30
2023-05-13T01:41:39.713Z,3.78
2023-05-13T01:44:45.131Z,4.15
2023-05-13T01:47:50.186Z,4.32
2023-05-13T01:50:55.724Z,4.00
2023-05-13T01:54:03.342Z,4.07
2023-05-13T01:57:08.676Z,4.00
2023-05-13T02:00:17.259Z,4.55
2023-05-13T02:03:24.237Z,3.95
2023-05-13T02:06:29.375Z,4.40
2023-05-13T02:09:37.335Z,4.43
2023-05-13T02:12:42.316Z,3.97
2023-05-13T02:15:47.663Z,4.82
2023-05-13T02:18:52.704Z,4.43
2023-05-13T02:21:58.046Z,4.30
2023-05-13T02:25:06.274Z,4.05
2023-05-13T02:28:11.603Z,4.68
2023-05-13T02:31:16.540Z,4.47
2023-05-13T02:34:23.439Z,3.90
2023-05-13T02:37:28.390Z,4.40
2023-05-13T02:40:36.419Z,4.43
2023-05-13T02:43:41.519Z,4.90
2023-05-13T02:46:48.463Z,4.78
2023-05-13T02:49:53.440Z,4.25
2023-05-13T02:52:58.788Z,4.80
2023-05-13T02:56:06.403Z,4.57
2023-05-13T02:59:11.928Z,4.90
2023-05-13T03:02:18.485Z,4.63
2023-05-13T03:05:24.176Z,4.57
2023-05-13T03:08:29.187Z,4.55
2023-05-13T03:11:37.188Z,4.80
2023-05-13T03:14:43.177Z,4.35
2023-05-13T03:17:48.526Z,4.28
2023-05-13T03:20:53.706Z,4.82
2023-05-13T03:23:59.046Z,4.60
2023-05-13T03:27:07.057Z,5.20
2023-05-13T03:30:12.930Z,4.63
2023-05-13T03:33:17.995Z,4.95
2023-05-13T03:36:23.422Z,5.07
2023-05-13T03:39:28.456Z,4.57
2023-05-13T03:42:36.443Z,5.25
2023-05-13T03:45:41.438Z,4.70
2023-05-13T03:48:48.827Z,4.50
2023-05-13T03:51:53.875Z,4.85
2023-05-13T03:54:59.199Z,4.95
2023-05-13T03:58:14.032Z,4.80
2023-05-13T04:01:19.788Z,5.47
2023-05-13T04:04:24.808Z,5.00
2023-05-13T04:07:44.696Z,4.90
2023-05-13T04:10:51.338Z,4.95
2023-05-13T04:13:58.949Z,4.65
2023-05-13T04:17:04.377Z,5.07
2023-05-13T04:20:11.372Z,4.75
2023-05-13T04:23:16.742Z,5.25
2023-05-13T04:26:21.887Z,5.03
2023-05-13T04:29:29.867Z,4.70
2023-05-13T04:32:37.258Z,5.22
2023-05-13T04:35:42.644Z,4.57
2023-05-13T04:38:47.653Z,5.05
2023-05-13T04:41:53.014Z,5.68
2023-05-13T04:45:03.653Z,4.97
2023-05-13T04:48:09.515Z,5.10
2023-05-13T04:51:14.618Z,5.10
2023-05-13T04:54:20.232Z,5.10
2023-05-13T04:57:25.248Z,5.30
2023-05-13T05:00:33.202Z,4.78
2023-05-13T05:03:38.278Z,4.88
2023-05-13T05:06:43.892Z,5.18
2023-05-13T05:09:48.940Z,4.53
2023-05-13T05:12:54.251Z,6.18
2023-05-13T05:16:01.976Z,4.90
2023-05-13T05:19:07.433Z,4.70
2023-05-13T05:22:12.422Z,4.95
2023-05-13T05:25:17.875Z,4.78
2023-05-13T05:28:24.336Z,4.22
2023-05-13T05:31:32.387Z,4.63
2023-05-13T05:34:37.429Z,5.00
2023-05-13T05:37:42.792Z,4.90
2023-05-13T05:40:48.204Z,4.38
2023-05-13T05:43:53.508Z,4.50
2023-05-13T05:47:01.091Z,4.65
2023-05-13T05:50:07.936Z,4.97
2023-05-13T05:53:13.191Z,5.18
2023-05-13T05:56:21.500Z,4.50
2023-05-13T05:59:26.541Z,4.03
2023-05-13T06:02:34.647Z,4.88
2023-05-13T06:05:39.721Z,4.75
2023-05-13T06:08:45.102Z,4.30
2023-05-13T06:11:50.056Z,4.80
2023-05-13T06:14:55.376Z,4.55
2023-05-13T06:18:05.752Z,5.32
2023-05-13T06:21:11.312Z,4.13
2023-05-13T06:24:16.288Z,4.32
2023-05-13T06:27:21.635Z,3.60
2023-05-13T06:30:27.792Z,4.25
2023-05-13T06:33:35.913Z,4.22
2023-05-13T06:36:40.908Z,4.55
2023-05-13T06:39:46.366Z,3.90
2023-05-13T06:42:52.349Z,4.00
2023-05-13T06:46:02.526Z,4.65
2023-05-13T06:49:10.122Z,3.83
2023-05-13T06:52:16.925Z,3.58
2023-05-13T06:55:23.486Z,4.28
2023-05-13T06:58:29.255Z,4.10
2023-05-13T07:01:34.530Z,4.53
2023-05-13T07:04:43.559Z,4.03
2023-05-13T07:07:48.757Z,4.07
2023-05-13T07:10:54.407Z,3.67
2023-05-13T07:13:59.418Z,3.65
2023-05-13T07:17:05.005Z,3.47
2023-05-13T07:20:14.680Z,3.95
2023-05-13T07:23:34.060Z,3.45
2023-05-13T07:26:39.138Z,3.40
2023-05-13T07:29:44.529Z,4.00
2023-05-13T07:32:50.545Z,3.55
2023-05-13T07:35:59.587Z,3.67
2023-05-13T07:39:05.321Z,3.95
2023-05-13T07:42:13.621Z,3.63
2023-05-13T07:45:21.037Z,3.83
2023-05-13T07:48:28.467Z,3.78
2023-05-13T07:51:40.063Z,4.60
2023-05-13T07:54:46.207Z,4.25
2023-05-13T07:57:52.070Z,5.00
2023-05-13T08:01:00.475Z,4.68
2023-05-13T08:04:34.619Z,5.10
2023-05-13T08:07:46.715Z,6.45
2023-05-13T08:11:07.909Z,5.55
2023-05-13T08:14:42.588Z,6.22
2023-05-13T08:18:03.450Z,5.13
2023-05-13T08:21:15.029Z,5.10
2023-05-13T08:24:30.402Z,6.07
2023-05-13T08:27:53.888Z,5.50
2023-05-13T08:38:39.535Z,5.45
2023-05-13T08:41:59.862Z,5.68
2023-05-13T08:49:31.868Z,5.40
2023-05-13T09:00:09.040Z,5.22
2023-05-13T09:03:38.842Z,5.22
2023-05-13T09:10:47.774Z,5.25
2023-05-13T09:18:43.198Z,5.43
2023-05-13T09:26:17.369Z,6.38
2023-05-13T09:29:56.281Z,7.10
2023-05-13T09:41:50.450Z,6.93
2023-05-13T09:53:43.375Z,5.68
2023-05-13T10:01:14.881Z,6.00
2023-05-13T10:04:34.070Z,6.30
2023-05-13T10:08:01.107Z,7.22
2023-05-13T10:11:12.065Z,7.03
2023-05-13T10:14:22.736Z,6.55
2023-05-13T10:18:15.680Z,6.28
2023-05-13T10:21:32.762Z,6.20
2023-05-13T10:28:09.048Z,5.45
2023-05-13T10:31:24.312Z,5.95
2023-05-13T10:34:31.632Z,5.78
2023-05-13T10:38:13.340Z,6.07
2023-05-13T10:41:42.004Z,5.85
2023-05-13T10:44:55.749Z,6.25
2023-05-13T10:48:08.671Z,6.32
2023-05-13T10:51:20.386Z,6.20
2023-05-13T10:54:27.939Z,6.13
2023-05-13T10:57:42.077Z,6.22
2023-05-13T11:00:48.303Z,5.80
2023-05-13T11:03:57.200Z,5.32
2023-05-13T11:07:20.701Z,5.78
2023-05-13T11:10:31.848Z,5.35
2023-05-13T11:13:42.811Z,5.40
2023-05-13T11:16:54.004Z,4.88
2023-05-13T11:20:02.437Z,5.20
2023-05-13T11:23:09.005Z,5.50
2023-05-13T11:26:20.205Z,5.13
2023-05-13T11:29:35.098Z,4.90
2023-05-13T11:32:56.577Z,6.00
2023-05-13T11:36:05.075Z,4.80
2023-05-13T11:39:11.516Z,5.05
2023-05-13T11:42:16.979Z,4.93
2023-05-13T11:45:28.319Z,5.07
2023-05-13T11:48:34.444Z,5.38
2023-05-13T11:51:39.542Z,5.70
2023-05-13T11:54:46.581Z,5.07
2023-05-13T11:57:51.875Z,4.60
2023-05-13T12:01:04.823Z,4.20
2023-05-13T12:04:10.600Z,4.40
2023-05-13T12:07:16.257Z,4.47
2023-05-13T12:10:21.577Z,4.68
2023-05-13T12:13:28.169Z,4.68
2023-05-13T12:16:37.491Z,4.10
2023-05-13T12:20:01.504Z,4.05
2023-05-13T12:23:06.793Z,4.32
2023-05-13T12:26:14.710Z,4.70
2023-05-13T12:29:21.850Z,4.63
2023-05-13T12:32:29.975Z,4.70
2023-05-13T12:35:37.866Z,4.40
2023-05-13T12:38:44.332Z,4.88
2023-05-13T12:41:54.880Z,4.88
2023-05-13T12:45:00.255Z,4.28
2023-05-13T12:48:09.593Z,4.07
2023-05-13T12:51:17.211Z,3.92
2023-05-13T12:54:23.597Z,4.60
2023-05-13T12:57:32.135Z,4.93
2023-05-13T13:00:37.440Z,5.30
2023-05-13T13:03:47.132Z,5.00
2023-05-13T13:06:54.219Z,4.63
2023-05-13T13:09:59.766Z,4.68
2023-05-13T13:13:05.135Z,4.85
2023-05-13T13:16:13.404Z,4.95
2023-05-13T13:19:21.089Z,4.50
2023-05-13T13:22:26.807Z,4.55
2023-05-13T13:25:33.190Z,4.72
2023-05-13T13:28:38.619Z,5.07
2023-05-13T13:31:43.668Z,5.18
2023-05-13T13:34:51.730Z,5.15
2023-05-13T13:37:57.396Z,5.45
2023-05-13T13:41:02.872Z,4.93
2023-05-13T13:44:08.139Z,4.93
2023-05-13T13:47:14.218Z,4.75
2023-05-13T13:50:22.876Z,4.70
2023-05-13T13:53:28.412Z,4.82
2023-05-13T13:56:36.507Z,4.60
2023-05-13T13:59:41.846Z,5.28
2023-05-13T14:02:49.089Z,5.43
2023-05-13T14:05:57.244Z,5.10
2023-05-13T14:09:02.345Z,4.97
2023-05-13T14:12:08.311Z,4.68
2023-05-13T14:15:13.901Z,4.82
2023-05-13T14:18:33.760Z,4.25
2023-05-13T14:21:41.771Z,4.60
2023-05-13T14:24:48.713Z,5.10
2023-05-13T14:27:55.700Z,3.95
2023-05-13T14:31:00.980Z,4.32
2023-05-13T14:34:08.206Z,4.50
2023-05-13T14:37:17.884Z,5.03
2023-05-13T14:40:23.636Z,4.57
2023-05-13T14:43:28.961Z,4.50
2023-05-13T14:46:35.751Z,4.47
2023-05-13T14:49:41.906Z,5.07
2023-05-13T14:52:49.839Z,3.92
2023-05-13T14:55:54.873Z,4.30
2023-05-13T14:59:04.150Z,4.47
2023-05-13T15:02:14.098Z,4.53
2023-05-13T15:05:19.946Z,3.97
2023-05-13T15:08:27.840Z,4.13
2023-05-13T15:11:33.515Z,4.82
2023-05-13T15:14:38.513Z,4.60
2023-05-13T15:17:45.989Z,4.80
2023-05-13T15:20:51.705Z,4.95
2023-05-13T15:24:02.612Z,4.65
2023-05-13T15:27:09.712Z,4.78
2023-05-13T15:30:17.179Z,4.30
2023-05-13T15:33:23.955Z,4.50
2023-05-13T15:36:29.391Z,4.25
2023-05-13T15:39:39.955Z,4.55
2023-05-13T15:42:45.343Z,4.30
2023-05-13T15:45:50.576Z,4.00
2023-05-13T15:48:56.132Z,4.50
2023-05-13T15:52:01.802Z,4.50
2023-05-13T15:55:13.251Z,5.10
2023-05-13T15:58:18.635Z,4.43
2023-05-13T16:04:44.036Z,4.20
2023-05-13T16:07:49.858Z,4.28
2023-05-13T16:10:58.053Z,4.53
2023-05-13T16:14:04.769Z,5.03
2023-05-13T16:17:09.917Z,4.03
2023-05-13T16:20:15.611Z,4.25
2023-05-13T16:23:20.697Z,4.57
2023-05-13T16:26:29.168Z,4.63
2023-05-13T16:29:47.752Z,4.45
2023-05-13T16:33:29.036Z,4.65
2023-05-13T16:36:52.452Z,4.30
2023-05-13T16:40:05.401Z,4.43
2023-05-13T16:43:38.038Z,4.15
2023-05-13T16:54:14.424Z,4.60
2023-05-13T16:58:10.034Z,5.25
2023-05-13T17:00:56.019Z,4.90
2023-05-13T17:04:02.127Z,5.63
2023-05-13T17:07:07.710Z,4.95
2023-05-13T17:10:12.855Z,4.65
2023-05-13T17:13:25.335Z,5.32
2023-05-13T17:16:36.046Z,5.68
2023-05-13T17:19:41.552Z,4.72
2023-05-13T17:22:49.541Z,4.30
2023-05-13T17:25:55.007Z,4.20
2023-05-13T17:29:01.022Z,3.72
2023-05-13T17:32:09.905Z,3.85
2023-05-13T17:35:15.228Z,3.67
2023-05-13T17:38:22.064Z,4.40
2023-05-13T17:41:30.524Z,4.10
2023-05-13T17:44:36.065Z,4.32
2023-05-13T17:47:43.925Z,3.97
2023-05-13T17:50:53.790Z,3.97
2023-05-13T17:54:02.130Z,3.42
2023-05-13T17:57:07.770Z,7.13
2023-05-13T18:00:14.719Z,4.30
2023-05-13T18:03:26.984Z,3.75
2023-05-13T18:06:34.069Z,3.58
2023-05-13T18:09:43.156Z,3.80
2023-05-13T18:12:49.112Z,4.00
2023-05-13T18:15:55.485Z,3.10
2023-05-13T18:19:04.258Z,3.40
2023-05-13T18:22:13.807Z,3.58
2023-05-13T18:25:20.579Z,3.50
2023-05-13T18:28:26.282Z,3.35
2023-05-13T18:31:35.018Z,3.72
2023-05-13T18:34:45.964Z,3.80
2023-05-13T18:37:52.600Z,4.65
2023-05-13T18:41:05.868Z,4.63
2023-05-13T18:44:10.910Z,4.47
2023-05-13T18:47:16.411Z,3.97
2023-05-13T18:50:24.370Z,4.65
2023-05-13T18:53:29.810Z,4.20
2023-05-13T18:56:35.210Z,4.47
2023-05-13T18:59:41.147Z,3.40
2023-05-13T19:02:48.674Z,3.55
2023-05-13T19:05:57.324Z,3.70
2023-05-13T19:09:02.552Z,4.20
2023-05-13T19:12:13.418Z,4.05
2023-05-13T19:15:23.787Z,3.65
2023-05-13T19:22:14.449Z,4.85
2023-05-13T19:25:21.383Z,4.30
2023-05-13T19:28:30.307Z,4.18
2023-05-13T19:31:35.642Z,4.10
2023-05-13T19:34:42.467Z,3.90
2023-05-13T19:37:53.304Z,3.80
2023-05-13T19:40:59.791Z,4.20
2023-05-13T19:44:04.908Z,4.10
2023-05-13T19:47:11.125Z,4.20
2023-05-13T19:50:17.952Z,3.90
2023-05-13T20:01:49.272Z,4.35
2023-05-13T20:09:01.078Z,4.00
2023-05-13T20:12:15.079Z,3.97
2023-05-13T20:15:48.284Z,3.58
2023-05-13T20:19:01.979Z,4.15
2023-05-13T20:22:12.912Z,3.75
2023-05-13T20:29:01.513Z,5.22
2023-05-13T20:32:26.599Z,3.83
2023-05-13T20:35:33.096Z,3.63
2023-05-13T20:38:44.368Z,4.05
2023-05-13T20:41:56.009Z,4.07
2023-05-13T20:45:10.306Z,3.63
2023-05-13T20:48:21.969Z,3.90
2023-05-13T20:51:36.272Z,3.63
2023-05-13T20:54:49.898Z,3.65
2023-05-13T20:57:59.548Z,4.25
2023-05-13T21:01:06.064Z,3.80
2023-05-13T21:04:14.598Z,3.85
2023-05-13T21:07:22.214Z,3.70
2023-05-13T21:10:32.419Z,4.28
2023-05-13T21:13:39.303Z,3.83
2023-05-13T21:16:46.720Z,4.10
2023-05-13T21:19:56.358Z,3.40
2023-05-13T21:23:03.849Z,3.63
2023-05-13T21:26:09.436Z,4.20
2023-05-13T21:29:14.905Z,3.70
2023-05-13T21:32:21.255Z,3.97
2023-05-13T21:35:31.254Z,3.85
2023-05-13T21:38:40.383Z,3.65
2023-05-13T21:41:47.193Z,3.78
2023-05-13T21:44:55.834Z,3.83
2023-05-13T21:48:04.968Z,3.58
2023-05-13T21:51:15.839Z,3.55
2023-05-13T21:54:26.312Z,3.97
2023-05-13T21:57:32.125Z,3.58
2023-05-13T22:00:40.259Z,4.07
2023-05-13T22:03:49.280Z,4.13
2023-05-13T22:06:57.320Z,3.88
2023-05-13T22:10:02.734Z,3.70
2023-05-13T22:13:10.028Z,4.32
2023-05-13T22:16:15.490Z,5.00
2023-05-13T22:19:20.875Z,4.38
2023-05-13T22:22:31.493Z,4.53
2023-05-13T22:25:39.761Z,3.97
2023-05-13T22:28:47.385Z,3.70
2023-05-13T22:31:52.792Z,4.20
2023-05-13T22:35:03.364Z,4.07
2023-05-13T22:38:11.187Z,4.22
2023-05-13T22:41:19.115Z,4.30
2023-05-13T22:44:25.663Z,4.45
2023-05-13T22:47:31.327Z,4.60
2023-05-13T22:50:36.412Z,4.18
2023-05-13T22:53:45.009Z,4.30
2023-05-13T22:57:01.716Z,4.10
2023-05-13T23:00:11.036Z,4.55
2023-05-13T23:03:16.625Z,4.80
2023-05-13T23:06:24.324Z,4.10
2023-05-13T23:09:31.875Z,4.22
2023-05-13T23:12:37.995Z,3.92
2023-05-13T23:15:43.159Z,4.05
2023-05-13T23:18:52.369Z,4.18
2023-05-13T23:21:57.454Z,4.45
2023-05-13T23:25:13.577Z,4.25
2023-05-13T23:28:24.266Z,4.20
2023-05-13T23:31:30.040Z,4.07
2023-05-13T23:34:37.567Z,4.07
2023-05-13T23:37:45.534Z,4.25
2023-05-13T23:40:56.106Z,4.10
2023-05-13T23:44:01.574Z,3.83
2023-05-13T23:47:10.362Z,4.50
2023-05-13T23:50:16.851Z,4.10
2023-05-13T23:53:23.645Z,4.05
2023-05-13T23:56:38.882Z,4.18
2023-05-13T23:59:44.156Z,4.28
